createdAt,value
2023-05-19T00:01:15.353Z,9.34
2023-05-19T00:03:53.690Z,9.26
2023-05-19T00:06:25.198Z,9.24
2023-05-19T00:09:02.500Z,9.23
2023-05-19T00:11:29.819Z,9.18
2023-05-19T00:13:58.431Z,9.18
2023-05-19T00:16:26.513Z,9.11
2023-05-19T00:18:54.279Z,9.08
2023-05-19T00:21:21.288Z,9.07
2023-05-19T00:23:47.906Z,9.05
2023-05-19T00:26:15.814Z,9.02
2023-05-19T00:28:42.317Z,9.03
2023-05-19T00:31:08.975Z,8.97
2023-05-19T00:33:35.572Z,8.97
2023-05-19T00:36:06.002Z,8.95
2023-05-19T00:38:34.365Z,8.91
2023-05-19T00:41:02.006Z,8.88
2023-05-19T00:43:30.297Z,8.84
2023-05-19T00:45:57.599Z,8.78
2023-05-19T00:48:25.556Z,8.73
2023-05-19T00:50:54.728Z,8.73
2023-05-19T00:53:21.524Z,8.67
2023-05-19T00:55:48.164Z,8.64
2023-05-19T00:58:15.409Z,8.62
2023-05-19T01:00:43.319Z,8.57
2023-05-19T01:03:13.298Z,8.58
2023-05-19T01:05:41.758Z,8.57
2023-05-19T01:08:09.056Z,8.50
2023-05-19T01:10:35.689Z,8.47
2023-05-19T01:13:04.445Z,8.43
2023-05-19T01:15:33.979Z,8.42
2023-05-19T01:18:07.482Z,8.39
2023-05-19T01:20:48.177Z,8.37
2023-05-19T01:23:36.579Z,8.33
2023-05-19T01:26:03.181Z,8.29
2023-05-19T01:28:53.769Z,8.25
2023-05-19T01:31:23.888Z,8.21
2023-05-19T01:33:52.451Z,8.17
2023-05-19T01:36:19.875Z,8.14
2023-05-19T01:38:48.283Z,8.12
2023-05-19T01:41:14.758Z,8.06
2023-05-19T01:43:41.531Z,8.04
2023-05-19T01:46:08.661Z,8.02
2023-05-19T01:48:35.659Z,8.03
2023-05-19T01:51:02.244Z,8.01
2023-05-19T01:53:28.799Z,7.94
2023-05-19T01:55:56.609Z,7.93
2023-05-19T01:58:47.358Z,7.90
2023-05-19T02:01:20.214Z,7.86
2023-05-19T02:03:59.482Z,7.82
2023-05-19T02:06:47.936Z,7.80
2023-05-19T02:09:25.865Z,7.78
2023-05-19T02:11:55.826Z,7.76
2023-05-19T02:14:27.651Z,7.73
2023-05-19T02:16:55.113Z,7.71
2023-05-19T02:19:24.199Z,7.68
2023-05-19T02:21:51.032Z,7.64
2023-05-19T02:24:18.016Z,7.63
2023-05-19T02:26:44.551Z,7.60
2023-05-19T02:29:11.168Z,7.61
2023-05-19T02:31:38.337Z,7.57
2023-05-19T02:34:05.001Z,7.57
2023-05-19T02:36:35.087Z,7.53
2023-05-19T02:39:04.305Z,7.50
2023-05-19T02:41:31.472Z,7.49
2023-05-19T02:43:58.081Z,7.48
2023-05-19T02:46:24.691Z,7.46
2023-05-19T02:48:52.336Z,7.43
2023-05-19T02:51:18.896Z,7.40
2023-05-19T02:53:45.447Z,7.38
2023-05-19T02:56:12.018Z,7.37
2023-05-19T02:58:39.451Z,7.34
2023-05-19T03:01:06.081Z,7.35
2023-05-19T03:03:32.896Z,7.34
2023-05-19T03:05:59.494Z,7.32
2023-05-19T03:08:26.044Z,7.28
2023-05-19T03:10:52.673Z,7.24
2023-05-19T03:13:19.467Z,7.19
2023-05-19T03:15:46.161Z,7.16
2023-05-19T03:18:12.864Z,7.12
2023-05-19T03:20:41.692Z,7.08
2023-05-19T03:23:09.088Z,7.05
2023-05-19T03:25:35.692Z,7.01
2023-05-19T03:28:02.227Z,6.97
2023-05-19T03:30:28.799Z,6.94
2023-05-19T03:32:55.419Z,6.89
2023-05-19T03:35:22.116Z,6.87
2023-05-19T03:37:48.753Z,6.84
2023-05-19T03:40:15.770Z,6.83
2023-05-19T03:42:42.346Z,6.82
2023-05-19T03:45:09.176Z,6.82
2023-05-19T03:47:35.854Z,6.81
2023-05-19T03:50:02.508Z,6.84
2023-05-19T03:52:29.056Z,6.83
2023-05-19T03:54:57.568Z,6.94
2023-05-19T03:57:23.955Z,6.94
2023-05-19T03:59:50.653Z,6.94
2023-05-19T04:02:17.226Z,6.96
2023-05-19T04:04:43.954Z,6.95
2023-05-19T04:07:10.479Z,6.97
2023-05-19T04:09:37.687Z,6.99
2023-05-19T04:12:04.765Z,7.00
2023-05-19T04:14:31.366Z,7.00
2023-05-19T04:16:58.137Z,7.03
2023-05-19T04:19:24.959Z,7.05
2023-05-19T04:21:51.920Z,7.06
2023-05-19T04:24:18.457Z,7.06
2023-05-19T04:26:47.070Z,7.08
2023-05-19T04:29:13.956Z,7.13
2023-05-19T04:31:41.201Z,7.17
2023-05-19T04:34:10.724Z,7.18
2023-05-19T04:36:37.821Z,7.22
2023-05-19T04:39:07.907Z,7.27
2023-05-19T04:41:34.966Z,7.27
2023-05-19T04:44:01.566Z,7.31
2023-05-19T04:46:30.344Z,7.38
2023-05-19T04:48:57.244Z,7.39
2023-05-19T04:51:30.348Z,7.45
2023-05-19T04:53:59.677Z,7.49
2023-05-19T04:56:27.365Z,7.51
2023-05-19T04:58:54.045Z,7.57
2023-05-19T05:01:22.602Z,7.61
2023-05-19T05:03:49.327Z,7.64
2023-05-19T05:06:16.319Z,7.66
2023-05-19T05:08:42.916Z,7.68
2023-05-19T05:11:09.953Z,7.72
2023-05-19T05:13:36.821Z,7.73
2023-05-19T05:16:06.613Z,7.78
2023-05-19T05:18:34.407Z,7.83
2023-05-19T05:21:01.472Z,7.91
2023-05-19T05:23:28.335Z,8.00
2023-05-19T05:25:55.145Z,8.10
2023-05-19T05:28:21.788Z,8.14
2023-05-19T05:30:49.101Z,8.21
2023-05-19T05:33:16.451Z,8.29
2023-05-19T05:35:43.169Z,8.33
2023-05-19T05:38:11.490Z,8.38
2023-05-19T05:40:38.045Z,8.44
2023-05-19T05:43:04.604Z,8.56
2023-05-19T05:45:31.411Z,8.66
2023-05-19T05:47:58.398Z,8.73
2023-05-19T05:50:25.397Z,8.84
2023-05-19T05:52:53.815Z,8.93
2023-05-19T05:55:20.464Z,9.04
2023-05-19T05:57:48.830Z,9.13
2023-05-19T06:00:15.963Z,9.30
2023-05-19T06:02:49.397Z,9.43
2023-05-19T06:05:16.623Z,9.52
2023-05-19T06:07:43.753Z,9.64
2023-05-19T06:10:10.403Z,9.78
2023-05-19T06:12:40.594Z,9.98
2023-05-19T06:15:08.178Z,10.08
2023-05-19T06:17:37.561Z,10.06
2023-05-19T06:20:08.656Z,10.12
2023-05-19T06:22:35.320Z,10.18
2023-05-19T06:25:01.914Z,10.30
2023-05-19T06:27:28.538Z,10.39
2023-05-19T06:29:55.136Z,10.42
2023-05-19T06:32:21.788Z,10.45
2023-05-19T06:34:54.337Z,10.61
2023-05-19T06:37:23.051Z,10.68
2023-05-19T06:39:52.808Z,10.70
2023-05-19T06:42:22.977Z,10.83
2023-05-19T06:44:53.296Z,10.83
2023-05-19T06:47:20.005Z,11.03
2023-05-19T06:49:46.868Z,11.19
2023-05-19T06:52:13.948Z,11.38
2023-05-19T06:54:40.478Z,11.42
2023-05-19T06:57:07.171Z,11.58
2023-05-19T06:59:33.835Z,11.53
2023-05-19T07:02:02.340Z,11.60
2023-05-19T07:04:29.033Z,11.71
2023-05-19T07:06:55.719Z,11.80
2023-05-19T07:09:22.282Z,11.67
2023-05-19T07:11:48.799Z,11.72
2023-05-19T07:14:15.562Z,11.86
2023-05-19T07:16:42.267Z,11.85
2023-05-19T07:19:09.093Z,11.98
2023-05-19T07:21:35.845Z,12.11
2023-05-19T07:24:02.408Z,12.17
2023-05-19T07:26:29.191Z,12.35
2023-05-19T07:28:56.804Z,12.46
2023-05-19T07:31:23.516Z,12.58
2023-05-19T07:33:51.575Z,12.73
2023-05-19T07:36:19.754Z,12.83
2023-05-19T07:38:46.766Z,12.83
2023-05-19T07:41:13.368Z,12.93
2023-05-19T07:43:40.155Z,13.08
2023-05-19T07:46:07.015Z,13.20
2023-05-19T07:48:33.674Z,13.17
2023-05-19T07:51:00.747Z,13.24
2023-05-19T07:53:28.023Z,13.55
2023-05-19T07:55:55.462Z,13.75
2023-05-19T07:58:23.021Z,13.87
2023-05-19T08:00:49.643Z,14.08
2023-05-19T08:03:18.342Z,13.98
2023-05-19T08:05:45.605Z,14.05
2023-05-19T08:08:12.853Z,13.96
2023-05-19T08:10:39.689Z,14.05
2023-05-19T08:13:06.306Z,14.14
2023-05-19T08:15:32.981Z,14.32
2023-05-19T08:17:59.610Z,14.43
2023-05-19T08:20:26.249Z,14.47
2023-05-19T08:22:52.908Z,14.61
2023-05-19T08:25:20.063Z,14.82
2023-05-19T08:27:46.627Z,15.10
2023-05-19T08:30:13.486Z,15.40
2023-05-19T08:32:40.425Z,15.44
2023-05-19T08:35:07.695Z,15.84
2023-05-19T08:37:37.102Z,16.09
2023-05-19T08:40:05.476Z,16.33
2023-05-19T08:42:33.221Z,16.65
2023-05-19T08:45:01.233Z,17.58
2023-05-19T08:47:28.649Z,18.37
2023-05-19T08:50:07.761Z,18.78
2023-05-19T08:52:57.835Z,18.94
2023-05-19T08:55:29.805Z,19.06
2023-05-19T08:57:56.828Z,19.62
2023-05-19T09:00:23.813Z,20.41
2023-05-19T09:03:00.777Z,20.08
2023-05-19T09:05:33.360Z,19.78
2023-05-19T09:08:02.938Z,20.03
2023-05-19T09:10:29.543Z,20.14
2023-05-19T09:12:56.425Z,20.68
2023-05-19T09:15:26.915Z,20.82
2023-05-19T09:18:07.070Z,20.84
2023-05-19T09:20:37.274Z,21.09
2023-05-19T09:23:03.949Z,21.65
2023-05-19T09:25:30.531Z,21.82
2023-05-19T09:27:57.233Z,21.56
2023-05-19T09:30:24.121Z,21.42
2023-05-19T09:32:51.395Z,21.56
2023-05-19T09:35:20.544Z,22.01
2023-05-19T09:37:47.292Z,21.62
2023-05-19T09:40:15.684Z,21.85
2023-05-19T09:42:43.961Z,21.51
2023-05-19T09:45:11.386Z,21.93
2023-05-19T09:47:40.351Z,22.08
2023-05-19T09:50:12.005Z,22.05
2023-05-19T09:52:39.251Z,21.99
2023-05-19T09:55:06.776Z,21.89
2023-05-19T09:57:37.892Z,21.96
2023-05-19T10:00:12.075Z,22.11
2023-05-19T10:02:41.279Z,22.33
2023-05-19T10:05:09.715Z,22.81
2023-05-19T10:07:37.714Z,21.97
2023-05-19T10:10:04.758Z,22.01
2023-05-19T10:12:31.967Z,22.13
2023-05-19T10:14:59.351Z,21.89
2023-05-19T10:17:26.309Z,22.62
2023-05-19T10:19:54.711Z,22.63
2023-05-19T10:22:21.762Z,22.77
2023-05-19T10:24:52.027Z,21.68
2023-05-19T10:27:18.980Z,21.96
2023-05-19T10:29:49.336Z,21.74
2023-05-19T10:32:19.718Z,22.72
2023-05-19T10:35:33.084Z,23.11
2023-05-19T10:38:17.945Z,21.76
2023-05-19T10:41:05.850Z,21.45
2023-05-19T10:43:42.468Z,21.33
2023-05-19T10:46:09.379Z,22.26
2023-05-19T10:48:38.780Z,22.92
2023-05-19T10:51:06.258Z,24.25
2023-05-19T10:53:33.394Z,23.81
2023-05-19T10:56:04.661Z,22.98
2023-05-19T10:58:46.453Z,22.02
2023-05-19T11:01:14.397Z,22.46
2023-05-19T11:03:57.079Z,23.28
2023-05-19T11:06:28.588Z,23.16
2023-05-19T11:09:01.010Z,23.95
2023-05-19T11:11:44.517Z,24.34
2023-05-19T11:14:13.085Z,24.62
2023-05-19T11:16:41.874Z,25.30
2023-05-19T11:19:09.160Z,25.04
2023-05-19T11:21:52.756Z,24.76
2023-05-19T11:24:35.322Z,24.19
2023-05-19T11:27:40.538Z,24.05
2023-05-19T11:30:14.857Z,24.23
2023-05-19T11:32:44.466Z,23.09
2023-05-19T11:35:11.614Z,23.54
2023-05-19T11:37:40.388Z,23.44
2023-05-19T11:40:07.736Z,24.14
2023-05-19T11:42:35.212Z,24.72
2023-05-19T11:45:02.222Z,24.60
2023-05-19T11:47:29.851Z,24.53
2023-05-19T11:49:57.419Z,24.14
2023-05-19T11:52:24.687Z,24.88
2023-05-19T11:54:51.581Z,25.04
2023-05-19T11:57:18.244Z,24.87
2023-05-19T11:59:46.078Z,24.57
2023-05-19T12:02:13.871Z,24.78
2023-05-19T12:04:40.994Z,25.16
2023-05-19T12:07:07.621Z,23.78
2023-05-19T12:09:34.410Z,23.91
2023-05-19T12:12:01.118Z,24.19
2023-05-19T12:14:30.023Z,24.78
2023-05-19T12:16:56.870Z,25.36
2023-05-19T12:19:25.992Z,25.99
2023-05-19T12:21:53.590Z,24.39
2023-05-19T12:24:20.685Z,25.11
2023-05-19T12:26:47.270Z,26.18
2023-05-19T12:29:14.010Z,26.14
2023-05-19T12:31:40.624Z,26.70
2023-05-19T12:34:07.233Z,26.29
2023-05-19T12:36:34.910Z,25.75
2023-05-19T12:39:01.827Z,25.64
2023-05-19T12:41:29.307Z,26.37
2023-05-19T12:43:56.265Z,25.79
2023-05-19T12:46:23.150Z,24.93
2023-05-19T12:48:49.844Z,24.37
2023-05-19T12:51:18.025Z,25.13
2023-05-19T12:53:45.788Z,25.40
2023-05-19T12:56:14.552Z,25.92
2023-05-19T12:58:42.227Z,24.22
2023-05-19T13:01:15.398Z,25.16
2023-05-19T13:03:42.902Z,24.75
2023-05-19T13:06:10.399Z,25.25
2023-05-19T13:08:37.799Z,24.85
2023-05-19T13:11:04.373Z,25.27
2023-05-19T13:13:31.170Z,24.42
2023-05-19T13:15:57.835Z,25.29
2023-05-19T13:18:24.525Z,25.11
2023-05-19T13:20:52.857Z,25.49
2023-05-19T13:23:19.650Z,25.10
2023-05-19T13:25:46.395Z,25.49
2023-05-19T13:28:13.026Z,25.72
2023-05-19T13:30:41.827Z,26.27
2023-05-19T13:33:08.664Z,26.18
2023-05-19T13:35:38.421Z,26.31
2023-05-19T13:38:06.136Z,25.95
2023-05-19T13:40:35.621Z,26.05
2023-05-19T13:43:03.260Z,26.23
2023-05-19T13:45:29.909Z,26.58
2023-05-19T13:47:57.061Z,26.88
2023-05-19T13:50:23.731Z,26.49
2023-05-19T13:52:50.276Z,26.17
2023-05-19T13:55:17.000Z,25.68
2023-05-19T13:57:44.237Z,25.92
2023-05-19T14:00:11.485Z,26.71
2023-05-19T14:02:38.258Z,26.54
2023-05-19T14:05:06.137Z,25.76
2023-05-19T14:07:34.730Z,25.56
2023-05-19T14:10:02.396Z,26.25
2023-05-19T14:12:38.127Z,25.65
2023-05-19T14:15:14.148Z,23.80
2023-05-19T14:17:40.901Z,23.71
2023-05-19T14:20:08.486Z,24.08
2023-05-19T14:22:35.225Z,23.52
2023-05-19T14:25:02.452Z,23.72
2023-05-19T14:27:29.045Z,24.21
2023-05-19T14:29:55.955Z,23.65
2023-05-19T14:32:22.556Z,24.00
2023-05-19T14:34:52.850Z,23.89
2023-05-19T14:37:20.205Z,23.90
2023-05-19T14:39:46.810Z,24.51
2023-05-19T14:42:13.472Z,24.86
2023-05-19T14:44:40.100Z,24.80
2023-05-19T14:47:07.556Z,24.80
2023-05-19T14:49:34.511Z,25.27
2023-05-19T14:52:01.287Z,25.18
2023-05-19T14:54:28.148Z,25.63
2023-05-19T14:56:54.855Z,25.84
2023-05-19T14:59:21.807Z,26.26
2023-05-19T15:01:48.457Z,27.00
2023-05-19T15:04:15.310Z,26.77
2023-05-19T15:06:41.894Z,26.55
2023-05-19T15:09:08.486Z,26.11
2023-05-19T15:11:35.059Z,26.26
2023-05-19T15:14:01.684Z,26.64
2023-05-19T15:16:28.429Z,26.53
2023-05-19T15:18:55.140Z,26.25
2023-05-19T15:21:21.656Z,25.50
2023-05-19T15:23:48.271Z,25.29
2023-05-19T15:26:14.944Z,25.49
2023-05-19T15:28:41.716Z,25.68
2023-05-19T15:31:08.603Z,25.93
2023-05-19T15:33:35.245Z,26.16
2023-05-19T15:36:01.842Z,26.67
2023-05-19T15:38:30.099Z,27.03
2023-05-19T15:40:57.229Z,26.66
2023-05-19T15:43:23.897Z,26.36
2023-05-19T15:45:52.298Z,26.55
2023-05-19T15:48:19.204Z,26.18
2023-05-19T15:50:45.959Z,25.96
2023-05-19T15:53:12.647Z,25.86
2023-05-19T15:55:39.251Z,25.86
2023-05-19T15:58:05.834Z,26.50
2023-05-19T16:00:32.690Z,25.86
2023-05-19T16:02:59.819Z,26.09
2023-05-19T16:05:26.586Z,26.23
2023-05-19T16:07:53.126Z,25.93
2023-05-19T16:10:19.786Z,26.46
2023-05-19T16:12:46.488Z,26.40
2023-05-19T16:15:13.079Z,26.31
2023-05-19T16:17:40.035Z,26.02
2023-05-19T16:20:07.356Z,25.86
2023-05-19T16:22:34.086Z,26.05
2023-05-19T16:25:00.731Z,26.59
2023-05-19T16:27:27.710Z,26.45
2023-05-19T16:29:55.129Z,26.67
2023-05-19T16:32:21.694Z,26.27
2023-05-19T16:34:48.247Z,25.74
2023-05-19T16:37:14.833Z,25.51
2023-05-19T16:39:43.750Z,25.78
2023-05-19T16:42:10.393Z,25.94
2023-05-19T16:44:36.976Z,25.73
2023-05-19T16:47:04.193Z,25.56
2023-05-19T16:49:31.077Z,25.64
2023-05-19T16:51:57.644Z,25.48
2023-05-19T16:54:24.679Z,24.78
2023-05-19T16:56:52.255Z,24.56
2023-05-19T16:59:18.817Z,24.09
2023-05-19T17:01:45.499Z,23.52
2023-05-19T17:04:12.154Z,23.78
2023-05-19T17:06:38.722Z,24.56
2023-05-19T17:09:05.305Z,24.77
2023-05-19T17:11:31.967Z,24.90
2023-05-19T17:13:58.709Z,24.91
2023-05-19T17:16:25.362Z,24.40
2023-05-19T17:18:52.004Z,24.51
2023-05-19T17:21:18.752Z,24.95
2023-05-19T17:23:45.579Z,24.72
2023-05-19T17:26:12.124Z,24.34
2023-05-19T17:28:38.721Z,24.00
2023-05-19T17:31:14.970Z,24.07
2023-05-19T17:33:41.590Z,24.00
2023-05-19T17:36:08.539Z,23.71
2023-05-19T17:38:35.793Z,23.77
2023-05-19T17:41:02.923Z,23.97
2023-05-19T17:43:29.615Z,24.09
2023-05-19T17:45:57.214Z,23.96
2023-05-19T17:48:25.925Z,23.86
2023-05-19T17:50:52.506Z,23.34
2023-05-19T17:53:19.411Z,22.20
2023-05-19T17:55:50.732Z,21.65
2023-05-19T17:58:18.708Z,21.04
2023-05-19T18:00:45.675Z,20.55
2023-05-19T18:03:12.557Z,20.69
2023-05-19T18:05:40.165Z,20.32
2023-05-19T18:08:09.234Z,19.75
2023-05-19T18:10:37.388Z,19.30
2023-05-19T18:13:04.714Z,19.23
2023-05-19T18:15:31.328Z,19.61
2023-05-19T18:17:58.018Z,19.72
2023-05-19T18:20:24.714Z,19.72
2023-05-19T18:22:51.428Z,19.38
2023-05-19T18:25:18.622Z,19.30
2023-05-19T18:27:45.405Z,19.05
2023-05-19T18:30:12.268Z,18.82
2023-05-19T18:32:38.928Z,18.67
2023-05-19T18:35:06.060Z,19.01
2023-05-19T18:37:32.681Z,18.56
2023-05-19T18:40:00.508Z,18.22
2023-05-19T18:42:27.152Z,18.21
2023-05-19T18:44:53.925Z,18.14
2023-05-19T18:47:22.740Z,17.94
2023-05-19T18:49:49.998Z,17.60
2023-05-19T18:52:16.590Z,17.66
2023-05-19T18:54:45.894Z,17.38
2023-05-19T18:57:12.781Z,17.20
2023-05-19T18:59:39.301Z,17.32
2023-05-19T19:02:06.595Z,17.18
2023-05-19T19:04:33.636Z,16.93
2023-05-19T19:07:00.354Z,16.97
2023-05-19T19:09:27.239Z,16.91
2023-05-19T19:11:53.786Z,16.84
2023-05-19T19:14:20.656Z,16.67
2023-05-19T19:16:47.270Z,16.53
2023-05-19T19:19:13.955Z,16.56
2023-05-19T19:21:40.631Z,16.35
2023-05-19T19:24:07.186Z,16.47
2023-05-19T19:26:33.802Z,16.29
2023-05-19T19:29:00.412Z,16.18
2023-05-19T19:31:28.805Z,16.22
2023-05-19T19:34:02.984Z,16.19
2023-05-19T19:36:29.792Z,16.01
2023-05-19T19:38:56.387Z,16.02
2023-05-19T19:41:23.220Z,15.99
2023-05-19T19:43:50.952Z,15.81
2023-05-19T19:46:17.600Z,15.82
2023-05-19T19:48:44.265Z,15.69
2023-05-19T19:51:10.926Z,15.69
2023-05-19T19:53:37.469Z,15.61
2023-05-19T19:56:05.016Z,15.52
2023-05-19T19:58:31.765Z,15.52
2023-05-19T20:01:08.300Z,15.51
2023-05-19T20:03:35.558Z,15.45
2023-05-19T20:06:02.306Z,15.29
2023-05-19T20:08:28.936Z,15.18
2023-05-19T20:10:55.700Z,15.20
2023-05-19T20:13:22.278Z,15.13
2023-05-19T20:15:48.913Z,15.14
2023-05-19T20:18:15.756Z,15.08
2023-05-19T20:20:42.487Z,14.99
2023-05-19T20:23:09.023Z,15.00
2023-05-19T20:25:58.473Z,14.99
2023-05-19T20:28:29.265Z,14.91
2023-05-19T20:30:55.955Z,14.81
2023-05-19T20:33:22.541Z,14.77
2023-05-19T20:35:49.094Z,14.78
2023-05-19T20:38:15.667Z,14.83
2023-05-19T20:40:42.216Z,14.86
2023-05-19T20:43:08.771Z,14.79
2023-05-19T20:45:35.726Z,14.76
2023-05-19T20:48:03.743Z,14.71
2023-05-19T20:50:30.701Z,14.57
2023-05-19T20:52:57.365Z,14.53
2023-05-19T20:55:23.944Z,14.62
2023-05-19T20:57:50.726Z,14.59
2023-05-19T21:00:17.575Z,14.65
2023-05-19T21:02:44.392Z,14.54
2023-05-19T21:05:11.319Z,14.46
2023-05-19T21:07:37.910Z,14.50
2023-05-19T21:10:04.887Z,14.45
2023-05-19T21:12:34.072Z,14.34
2023-05-19T21:15:01.560Z,14.36
2023-05-19T21:17:28.252Z,14.31
2023-05-19T21:19:58.087Z,14.19
2023-05-19T21:22:26.104Z,14.21
2023-05-19T21:24:53.611Z,14.29
2023-05-19T21:27:23.159Z,14.12
2023-05-19T21:29:54.031Z,14.14
2023-05-19T21:32:21.211Z,14.06
2023-05-19T21:34:47.789Z,14.10
2023-05-19T21:37:16.288Z,14.09
2023-05-19T21:39:43.281Z,14.03
2023-05-19T21:42:09.825Z,13.98
2023-05-19T21:44:36.446Z,13.98
2023-05-19T21:47:03.062Z,13.90
2023-05-19T21:49:29.861Z,13.92
2023-05-19T21:51:56.444Z,13.86
2023-05-19T21:54:22.985Z,13.86
2023-05-19T21:56:49.571Z,13.73
2023-05-19T21:59:16.101Z,13.75
2023-05-19T22:01:42.940Z,13.72
2023-05-19T22:04:10.278Z,13.73
2023-05-19T22:06:36.907Z,13.62
2023-05-19T22:09:04.353Z,13.59
2023-05-19T22:11:30.892Z,13.65
2023-05-19T22:13:57.442Z,13.60
2023-05-19T22:16:24.025Z,13.64
2023-05-19T22:18:50.657Z,13.59
2023-05-19T22:21:17.289Z,13.57
2023-05-19T22:23:44.095Z,13.52
2023-05-19T22:26:10.941Z,13.53
2023-05-19T22:28:37.491Z,13.50
2023-05-19T22:31:04.163Z,13.47
2023-05-19T22:33:30.966Z,13.42
2023-05-19T22:35:57.849Z,13.36
2023-05-19T22:38:24.396Z,13.31
2023-05-19T22:40:51.013Z,13.28
2023-05-19T22:43:17.618Z,13.26
2023-05-19T22:45:44.282Z,13.30
2023-05-19T22:48:11.618Z,13.22
2023-05-19T22:50:38.362Z,13.16
2023-05-19T22:53:04.991Z,13.12
2023-05-19T22:55:32.190Z,13.14
2023-05-19T22:57:59.058Z,13.09
2023-05-19T23:00:25.655Z,13.06
2023-05-19T23:02:52.227Z,13.07
2023-05-19T23:05:18.836Z,13.06
2023-05-19T23:07:45.523Z,12.98
2023-05-19T23:10:12.080Z,12.94
2023-05-19T23:12:39.992Z,12.97
2023-05-19T23:15:07.934Z,12.94
2023-05-19T23:17:34.547Z,12.90
2023-05-19T23:20:01.205Z,12.88
2023-05-19T23:22:27.788Z,12.83
2023-05-19T23:24:54.322Z,12.74
2023-05-19T23:27:20.851Z,12.73
2023-05-19T23:29:51.120Z,12.68
2023-05-19T23:32:17.869Z,12.64
2023-05-19T23:34:44.512Z,12.62
2023-05-19T23:37:11.720Z,12.55
2023-05-19T23:39:38.441Z,12.53
2023-05-19T23:42:05.812Z,12.55
2023-05-19T23:44:32.639Z,12.53
2023-05-19T23:46:59.415Z,12.52
2023-05-19T23:49:26.003Z,12.44
2023-05-19T23:51:52.711Z,12.41
2023-05-19T23:54:19.528Z,12.39
2023-05-19T23:56:46.171Z,12.32
2023-05-19T23:59:12.732Z,12.32
